Time;durP1;ratioP1;P1;durP2;ratioP2;P2;SDS_P1;SDS_P2;PMS_P1;PMS_P2;Temp;Humidity;BMP_temperature;BMP_pressure;BME280_temperature;BME280_humidity;BME280_pressure;Samples;Min_cycle;Max_cycle;Signal;HPM_P1;HPM_P2
2022/07/20 00:00:11;;;;;;;3.80;1.80;;;;;16.70;98029.00;;;;111243;1247;41734;-76
2022/07/20 00:03:06;;;;;;;4.20;1.80;;;;;16.70;98023.60;;;;111008;1248;43172;-77
2022/07/20 00:05:36;;;;;;;4.50;1.80;;;;;16.70;98022.80;;;;111230;1247;41151;-79
2022/07/20 00:08:06;;;;;;;5.90;2.20;;;;;16.68;98014.80;;;;111287;1247;41155;-79
2022/07/20 00:13:25;;;;;;;5.50;2.20;;;;;16.64;98018.00;;;;111125;1249;41154;-78
2022/07/20 00:15:56;;;;;;;3.70;1.90;;;;;16.60;98015.20;;;;111220;1247;41151;-78
2022/07/20 00:18:26;;;;;;;6.60;2.30;;;;;16.50;98016.00;;;;111060;1249;41415;-78
2022/07/20 00:20:56;;;;;;;4.90;2.10;;;;;16.50;98018.40;;;;111242;1247;42112;-77
2022/07/20 00:23:26;;;;;;;5.80;2.20;;;;;16.40;98020.80;;;;111204;1247;41143;-77
2022/07/20 00:25:56;;;;;;;4.70;2.00;;;;;16.40;98024.20;;;;111238;1248;41161;-78
2022/07/20 00:28:25;;;;;;;4.90;2.10;;;;;16.40;98025.80;;;;111336;1247;41385;-78
2022/07/20 00:30:55;;;;;;;6.80;2.20;;;;;16.30;98017.20;;;;111180;1247;41659;-78
2022/07/20 00:33:25;;;;;;;5.90;2.40;;;;;16.30;98018.20;;;;111350;1247;41142;-76
2022/07/20 00:35:55;;;;;;;5.40;2.00;;;;;16.30;98015.00;;;;111191;1247;41264;-77
2022/07/20 00:38:25;;;;;;;5.60;2.20;;;;;16.24;98013.00;;;;111392;1246;41151;-78
2022/07/20 00:40:56;;;;;;;3.70;1.90;;;;;16.20;98020.00;;;;111453;1245;41238;-78
2022/07/20 00:43:26;;;;;;;6.60;2.60;;;;;16.20;98016.40;;;;111393;1247;42149;-75
2022/07/20 00:45:56;;;;;;;6.20;2.40;;;;;16.10;98020.20;;;;111292;1247;41146;-77
2022/07/20 00:48:26;;;;;;;6.60;2.30;;;;;16.10;98016.80;;;;111188;1250;42402;-70
2022/07/20 00:50:55;;;;;;;5.00;2.10;;;;;16.10;98018.20;;;;111437;1245;42229;-77
2022/07/20 00:53:26;;;;;;;9.10;2.30;;;;;16.04;98017.60;;;;111332;1247;41150;-78
2022/07/20 00:55:57;;;;;;;5.20;2.40;;;;;16.00;98015.00;;;;111227;1247;41150;-77
2022/07/20 00:58:27;;;;;;;4.60;2.00;;;;;16.00;98013.60;;;;111013;1248;42395;-70
2022/07/20 01:00:57;;;;;;;4.90;2.40;;;;;15.98;98012.20;;;;111407;1247;41912;-78
2022/07/20 01:03:27;;;;;;;7.10;2.60;;;;;15.90;98013.40;;;;111519;1246;41761;-78
2022/07/20 01:05:57;;;;;;;;;;;;;15.90;98015.00;;;;111264;1247;41259;-78
2022/07/20 01:08:29;;;;;;;7.90;2.70;;;;;15.90;98009.60;;;;111192;1247;41255;-78
2022/07/20 01:10:58;;;;;;;7.10;2.70;;;;;15.86;98011.60;;;;111076;1248;42502;-78
2022/07/20 01:13:28;;;;;;;7.90;3.00;;;;;15.80;98013.20;;;;111166;1249;41141;-78
2022/07/20 01:15:57;;;;;;;6.30;2.40;;;;;15.56;98007.20;;;;111133;1248;41436;-79
2022/07/20 01:18:29;;;;;;;6.10;2.70;;;;;15.30;98012.20;;;;111118;1248;41166;-78
2022/07/20 01:21:01;;;;;;;6.80;2.80;;;;;15.20;98013.00;;;;111517;1247;41284;-78
2022/07/20 01:23:31;;;;;;;7.00;2.80;;;;;14.90;98012.60;;;;111175;1248;42333;-79
2022/07/20 01:26:01;;;;;;;;;;;;;14.90;98008.00;;;;111472;1247;42205;-79
2022/07/20 01:28:31;;;;;;;7.00;2.90;;;;;14.90;98012.00;;;;111190;1249;41264;-79
2022/07/20 01:31:01;;;;;;;6.50;2.60;;;;;14.90;98008.60;;;;111336;1247;41148;-79
2022/07/20 01:33:31;;;;;;;7.70;2.30;;;;;14.94;98006.60;;;;111424;1246;41461;-77
2022/07/20 01:36:01;;;;;;;5.40;2.10;;;;;15.00;98006.20;;;;111152;1247;41326;-79
2022/07/20 01:38:30;;;;;;;7.00;3.10;;;;;15.00;98004.80;;;;111175;1247;41397;-79
2022/07/20 01:41:00;;;;;;;10.40;3.70;;;;;15.00;98007.60;;;;111263;1248;41623;-78
2022/07/20 01:43:30;;;;;;;8.20;3.20;;;;;14.92;98007.40;;;;111277;1248;42034;-81
2022/07/20 01:45:59;;;;;;;6.20;2.60;;;;;14.90;98005.40;;;;111330;1247;41610;-81
2022/07/20 01:48:29;;;;;;;8.50;3.30;;;;;14.90;98005.60;;;;111313;1247;41131;-79
2022/07/20 01:50:58;;;;;;;7.50;2.90;;;;;14.90;98009.00;;;;111365;1247;41140;-78
2022/07/20 01:53:28;;;;;;;6.10;2.50;;;;;14.90;98006.60;;;;111238;1248;41131;-70
2022/07/20 01:55:58;;;;;;;6.60;2.80;;;;;14.90;98005.80;;;;111169;1249;41539;-79
2022/07/20 01:58:28;;;;;;;6.00;2.50;;;;;14.90;98006.80;;;;111130;1248;41234;-78
2022/07/20 02:00:59;;;;;;;7.90;2.80;;;;;14.90;98004.40;;;;111236;1248;41146;-78
2022/07/20 02:03:30;;;;;;;7.40;2.80;;;;;14.90;98007.00;;;;111272;1247;41131;-77
2022/07/20 02:06:01;;;;;;;9.30;2.70;;;;;14.88;98008.40;;;;111172;1248;41166;-78
2022/07/20 02:08:32;;;;;;;5.90;2.50;;;;;14.82;98005.20;;;;111202;1248;41210;-76
2022/07/20 02:11:01;;;;;;;5.90;2.30;;;;;14.80;98008.60;;;;111315;1247;42038;-77
2022/07/20 02:13:35;;;;;;;5.80;2.40;;;;;14.80;98006.80;;;;111194;1248;41194;-76
2022/07/20 02:16:15;;;;;;;5.60;2.70;;;;;14.80;98008.00;;;;111303;1248;40916;-78
2022/07/20 02:18:51;;;;;;;6.70;2.50;;;;;14.80;98003.40;;;;111193;1249;42017;-77
2022/07/20 02:21:23;;;;;;;5.90;2.40;;;;;14.70;97999.40;;;;111363;1247;41247;-76
2022/07/20 02:23:54;;;;;;;6.80;2.80;;;;;14.70;97999.60;;;;111155;1248;41151;-77
2022/07/20 02:26:26;;;;;;;6.00;2.30;;;;;14.60;98001.20;;;;111282;1247;42115;-76
2022/07/20 02:28:56;;;;;;;5.00;2.30;;;;;14.60;98001.20;;;;111357;1247;41251;-71
2022/07/20 02:31:26;;;;;;;5.60;2.40;;;;;14.60;97996.80;;;;111188;1244;41252;-78
2022/07/20 02:34:02;;;;;;;5.60;2.40;;;;;14.60;97997.20;;;;111187;1248;41230;-78
2022/07/20 02:36:34;;;;;;;6.90;2.50;;;;;14.60;97994.60;;;;111246;1247;41168;-78
2022/07/20 02:39:05;;;;;;;5.70;2.30;;;;;14.60;97995.80;;;;111227;1247;42822;-79
2022/07/20 02:41:35;;;;;;;4.90;2.30;;;;;14.54;98001.40;;;;111379;1247;41605;-78
2022/07/20 02:44:05;;;;;;;7.30;2.70;;;;;14.50;98002.80;;;;111302;1247;41198;-77
2022/07/20 02:46:37;;;;;;;6.00;2.60;;;;;14.50;98001.00;;;;111513;1247;41248;-75
2022/07/20 02:49:07;;;;;;;7.20;2.40;;;;;14.50;98004.60;;;;111106;1249;41148;-75
2022/07/20 02:51:37;;;;;;;5.50;2.50;;;;;14.50;98003.40;;;;111353;1247;41182;-76
2022/07/20 02:54:07;;;;;;;7.00;2.30;;;;;14.50;98008.20;;;;111434;1247;41935;-76
2022/07/20 02:56:37;;;;;;;5.70;2.50;;;;;14.50;98008.20;;;;111411;1247;41142;-75
2022/07/20 02:59:07;;;;;;;7.70;3.10;;;;;14.40;98011.20;;;;111265;1247;41334;-76
2022/07/20 03:01:37;;;;;;;6.70;2.80;;;;;14.30;98014.40;;;;111510;1247;41151;-76
2022/07/20 03:04:09;;;;;;;6.50;2.80;;;;;14.30;98018.00;;;;111153;1248;41145;-75
2022/07/20 03:06:40;;;;;;;6.00;2.60;;;;;14.30;98016.80;;;;111215;1247;41402;-71
2022/07/20 03:09:10;;;;;;;5.20;2.30;;;;;14.30;98020.00;;;;111216;1247;41354;-73
2022/07/20 03:11:39;;;;;;;6.00;2.50;;;;;14.36;98018.60;;;;111219;1247;41792;-75
2022/07/20 03:14:09;;;;;;;5.80;2.40;;;;;14.36;98016.00;;;;111146;1248;41716;-76
2022/07/20 03:16:39;;;;;;;6.20;2.40;;;;;14.40;98017.00;;;;111225;1248;41258;-75
2022/07/20 03:19:09;;;;;;;6.90;2.50;;;;;14.40;98019.80;;;;111148;1248;41149;-76
2022/07/20 03:21:41;;;;;;;9.10;2.40;;;;;14.40;98025.20;;;;111177;1248;41281;-75
2022/07/20 03:24:10;;;;;;;5.40;2.30;;;;;14.40;98026.40;;;;111429;1247;41141;-76
2022/07/20 03:26:40;;;;;;;6.50;2.30;;;;;14.44;98026.40;;;;111488;1247;41130;-77
2022/07/20 03:29:10;;;;;;;5.50;2.40;;;;;14.50;98030.40;;;;111461;1247;41149;-76
2022/07/20 03:31:40;;;;;;;4.80;2.10;;;;;14.50;98031.20;;;;111312;1247;41143;-78
2022/07/20 03:34:10;;;;;;;6.90;2.60;;;;;14.50;98028.80;;;;111226;1247;41141;-78
2022/07/20 03:36:39;;;;;;;8.20;2.50;;;;;14.60;98026.40;;;;110916;1251;41587;-76
2022/07/20 03:39:09;;;;;;;4.50;2.10;;;;;14.60;98034.20;;;;111137;1249;41147;-75
2022/07/20 03:41:38;;;;;;;5.30;2.40;;;;;14.60;98030.40;;;;111346;1247;41196;-77
2022/07/20 03:44:08;;;;;;;5.70;2.20;;;;;14.70;98031.80;;;;111452;1247;41147;-76
2022/07/20 03:46:37;;;;;;;5.70;2.20;;;;;14.70;98029.60;;;;111500;1247;41132;-75
2022/07/20 03:49:08;;;;;;;6.90;2.60;;;;;14.80;98034.00;;;;111295;1247;42011;-76
2022/07/20 03:51:38;;;;;;;7.50;3.00;;;;;14.80;98038.20;;;;111426;1247;41148;-77
2022/07/20 03:54:07;;;;;;;7.50;2.80;;;;;14.80;98039.80;;;;111336;1247;41254;-76
2022/07/20 03:56:42;;;;;;;8.50;2.90;;;;;14.84;98045.00;;;;111272;1247;41151;-75
2022/07/20 03:59:12;;;;;;;5.40;2.50;;;;;14.90;98042.60;;;;111286;1246;40746;-76
2022/07/20 04:01:42;;;;;;;6.80;2.30;;;;;14.90;98043.20;;;;111224;1247;41157;-74
2022/07/20 04:04:12;;;;;;;5.60;2.30;;;;;15.00;98045.20;;;;111300;1247;41123;-75
2022/07/20 04:06:41;;;;;;;8.80;3.20;;;;;15.08;98048.20;;;;111398;1247;41346;-75
2022/07/20 04:09:11;;;;;;;7.00;2.60;;;;;15.10;98046.40;;;;111104;1248;41154;-75
2022/07/20 04:11:40;;;;;;;7.10;2.80;;;;;15.20;98049.80;;;;111154;1247;41497;-74
2022/07/20 04:14:10;;;;;;;7.00;2.40;;;;;15.30;98044.40;;;;111082;1246;41939;-71
2022/07/20 04:16:39;;;;;;;5.60;2.30;;;;;15.38;98046.20;;;;111111;1249;41123;-76
2022/07/20 04:19:08;;;;;;;7.60;2.80;;;;;15.50;98045.80;;;;111160;1247;41155;-75
2022/07/20 04:21:37;;;;;;;8.40;3.30;;;;;15.70;98042.40;;;;111247;1247;41248;-74
2022/07/20 04:24:06;;;;;;;6.70;3.10;;;;;16.10;98043.00;;;;111266;1247;41670;-75
2022/07/20 04:26:36;;;;;;;15.60;4.00;;;;;16.54;98040.80;;;;111253;1247;41373;-75
2022/07/20 04:29:06;;;;;;;13.20;3.90;;;;;17.00;98042.40;;;;111339;1247;41137;-74
2022/07/20 04:31:35;;;;;;;10.00;3.50;;;;;17.54;98041.20;;;;111280;1247;41593;-75
2022/07/20 04:34:04;;;;;;;9.30;3.90;;;;;18.10;98036.00;;;;111204;1247;41146;-74
2022/07/20 04:36:34;;;;;;;10.20;4.10;;;;;18.48;98038.60;;;;111174;1249;41166;-72
2022/07/20 04:39:03;;;;;;;12.60;3.70;;;;;18.80;98034.00;;;;111443;1247;41170;-76
2022/07/20 04:41:33;;;;;;;7.10;3.30;;;;;19.18;98032.80;;;;111269;1247;42086;-75
2022/07/20 04:44:02;;;;;;;10.30;4.20;;;;;19.60;98036.40;;;;111209;1248;41996;-74
2022/07/20 04:46:31;;;;;;;7.80;3.30;;;;;20.02;98037.60;;;;111183;1247;42533;-75
2022/07/20 04:49:01;;;;;;;6.90;2.80;;;;;20.52;98037.20;;;;111239;1248;41155;-77
2022/07/20 04:51:31;;;;;;;9.70;3.40;;;;;21.10;98031.00;;;;111215;1247;42539;-75
2022/07/20 04:54:00;;;;;;;7.00;2.80;;;;;21.70;98023.60;;;;111181;1247;41317;-74
2022/07/20 04:56:29;;;;;;;8.00;3.30;;;;;22.30;98016.80;;;;111218;1247;41263;-75
2022/07/20 04:58:58;;;;;;;8.80;3.30;;;;;22.74;98008.80;;;;111183;1250;41959;-76
2022/07/20 05:01:28;;;;;;;10.20;3.40;;;;;23.10;98008.20;;;;111175;1248;41297;-71
2022/07/20 05:03:58;;;;;;;6.80;2.80;;;;;23.50;98001.60;;;;111410;1247;42335;-77
2022/07/20 05:06:28;;;;;;;7.20;2.80;;;;;23.90;97998.20;;;;111182;1248;41124;-75
2022/07/20 05:08:57;;;;;;;10.10;3.30;;;;;24.20;98003.20;;;;111253;1245;41413;-75
2022/07/20 05:11:29;;;;;;;15.50;2.90;;;;;24.14;98004.60;;;;111348;1245;41139;-75
2022/07/20 05:13:59;;;;;;;8.20;2.50;;;;;24.42;98002.80;;;;111532;1247;41371;-75
2022/07/20 05:16:28;;;;;;;6.80;2.30;;;;;24.56;98001.00;;;;111397;1247;41721;-75
2022/07/20 05:18:57;;;;;;;8.00;2.20;;;;;24.90;97999.20;;;;111232;1247;42370;-76
2022/07/20 05:21:26;;;;;;;11.20;2.30;;;;;25.30;98001.00;;;;111473;1245;41540;-75
2022/07/20 05:23:56;;;;;;;5.90;2.30;;;;;25.64;98003.40;;;;111477;1245;40881;-76
2022/07/20 05:26:24;;;;;;;6.60;2.60;;;;;26.00;97999.00;;;;111316;1244;41152;-76
2022/07/20 05:28:53;;;;;;;8.30;2.30;;;;;26.00;98000.20;;;;111174;1248;40880;-73
2022/07/20 05:31:22;;;;;;;6.00;2.10;;;;;25.92;98004.00;;;;111470;1246;41196;-76
2022/07/20 05:33:52;;;;;;;5.20;2.00;;;;;26.20;98007.80;;;;111305;1247;41128;-76
2022/07/20 05:36:21;;;;;;;9.20;2.10;;;;;26.50;98010.40;;;;111209;1247;41349;-75
2022/07/20 05:38:50;;;;;;;6.30;2.10;;;;;26.74;98011.80;;;;111273;1247;41182;-75
2022/07/20 05:41:19;;;;;;;9.00;2.20;;;;;26.48;98030.40;;;;111198;1247;41248;-73
2022/07/20 05:43:48;;;;;;;10.90;1.90;;;;;25.48;98032.40;;;;111219;1247;41362;-77
2022/07/20 05:46:17;;;;;;;10.90;2.00;;;;;24.70;98036.80;;;;111144;1247;41137;-75
2022/07/20 05:48:46;;;;;;;7.60;1.80;;;;;24.40;98038.60;;;;111451;1247;41149;-77
2022/07/20 05:51:16;;;;;;;7.40;2.00;;;;;24.40;98038.40;;;;111161;1250;41257;-78
2022/07/20 05:53:57;;;;;;;3.80;1.60;;;;;24.84;98032.20;;;;111260;1246;41173;-76
2022/07/20 05:56:27;;;;;;;5.10;2.30;;;;;25.50;98033.00;;;;111457;1247;41907;-75
2022/07/20 05:58:57;;;;;;;3.40;1.80;;;;;26.20;98036.00;;;;111451;1247;41240;-74
2022/07/20 06:01:26;;;;;;;3.50;1.80;;;;;26.56;98035.40;;;;111140;1247;41192;-74
2022/07/20 06:03:57;;;;;;;9.10;2.10;;;;;27.02;98037.20;;;;111330;1245;41125;-71
2022/07/20 06:06:37;;;;;;;6.20;2.20;;;;;27.70;98032.60;;;;111260;1247;41594;-75
2022/07/20 06:09:12;;;;;;;7.50;2.10;;;;;27.72;98032.40;;;;111460;1245;41163;-75
2022/07/20 06:11:50;;;;;;;4.10;1.70;;;;;27.42;98033.40;;;;111507;1246;41530;-74
2022/07/20 06:14:19;;;;;;;3.80;1.60;;;;;27.90;98035.60;;;;111275;1247;41254;-75
2022/07/20 06:16:48;;;;;;;7.60;2.00;;;;;28.60;98036.40;;;;111244;1247;41746;-78
2022/07/20 06:19:17;;;;;;;4.00;1.70;;;;;28.58;98034.80;;;;111193;1249;41145;-75
2022/07/20 06:21:47;;;;;;;5.00;1.80;;;;;29.18;98031.80;;;;111255;1247;41244;-78
2022/07/20 06:24:16;;;;;;;7.80;1.70;;;;;29.80;98025.40;;;;111183;1247;41194;-77
2022/07/20 06:26:46;;;;;;;5.10;1.80;;;;;29.92;98027.00;;;;111381;1247;41729;-78
2022/07/20 06:29:15;;;;;;;10.20;1.70;;;;;30.20;98026.00;;;;111327;1247;41783;-75
2022/07/20 06:31:44;;;;;;;4.40;1.80;;;;;30.88;98025.20;;;;111368;1247;41562;-80
2022/07/20 06:34:33;;;;;;;4.00;1.50;;;;;31.00;98023.00;;;;111481;1245;41458;-79
2022/07/20 06:37:02;;;;;;;4.50;1.40;;;;;31.40;98017.80;;;;111345;1246;41331;-80
2022/07/20 06:39:31;;;;;;;3.00;1.50;;;;;32.14;98017.00;;;;111189;1247;41696;-80
2022/07/20 06:42:00;;;;;;;3.90;1.60;;;;;32.80;98011.80;;;;111375;1246;41255;-75
2022/07/20 06:44:29;;;;;;;4.80;1.80;;;;;33.10;98008.40;;;;111445;1246;42638;-80
2022/07/20 06:46:58;;;;;;;6.50;1.90;;;;;33.32;98003.60;;;;111428;1247;41242;-78
2022/07/20 06:49:27;;;;;;;3.40;1.60;;;;;33.46;98003.40;;;;111442;1246;41229;-77
2022/07/20 06:51:57;;;;;;;2.30;1.30;;;;;33.94;98009.60;;;;111339;1247;41240;-80
2022/07/20 06:54:26;;;;;;;4.20;1.60;;;;;34.70;98005.40;;;;111166;1246;41625;-80
2022/07/20 06:56:56;;;;;;;5.30;1.90;;;;;34.80;98005.20;;;;111178;1248;41660;-80
2022/07/20 06:59:24;;;;;;;5.00;1.70;;;;;35.00;98000.20;;;;111028;1248;41292;-80
2022/07/20 07:01:53;;;;;;;4.30;1.60;;;;;34.76;97996.80;;;;111167;1247;41144;-79
2022/07/20 07:04:23;;;;;;;4.10;1.70;;;;;34.82;97996.40;;;;111262;1247;41142;-79
2022/07/20 07:06:52;;;;;;;4.90;1.70;;;;;34.92;98002.20;;;;111499;1247;41556;-79
2022/07/20 07:09:21;;;;;;;4.50;1.70;;;;;34.96;97997.60;;;;111519;1247;41134;-79
2022/07/20 07:11:56;;;;;;;5.70;1.70;;;;;35.30;97992.00;;;;111505;1246;41606;-81
2022/07/20 07:14:25;;;;;;;4.40;1.90;;;;;35.12;97989.60;;;;111285;1247;41238;-79
2022/07/20 07:16:54;;;;;;;5.70;2.00;;;;;34.26;97993.00;;;;111425;1246;41143;-77
2022/07/20 07:19:23;;;;;;;5.10;1.60;;;;;33.08;97996.00;;;;111249;1247;42012;-79
2022/07/20 07:21:52;;;;;;;5.70;1.70;;;;;31.80;98000.60;;;;111240;1246;41295;-78
2022/07/20 07:24:21;;;;;;;4.90;1.70;;;;;31.00;98010.40;;;;111156;1248;41067;-78
2022/07/20 07:26:50;;;;;;;6.60;1.80;;;;;30.46;98009.00;;;;111340;1247;41191;-76
2022/07/20 07:29:20;;;;;;;7.10;1.90;;;;;29.58;98009.40;;;;111374;1246;41405;-78
2022/07/20 07:31:48;;;;;;;2.70;1.50;;;;;29.34;98012.00;;;;111144;1247;41152;-78
2022/07/20 07:34:17;;;;;;;5.10;2.00;;;;;29.20;98015.00;;;;111516;1246;42646;-75
2022/07/20 07:36:46;;;;;;;4.30;1.60;;;;;29.16;98014.80;;;;111400;1246;41295;-77
2022/07/20 07:39:15;;;;;;;8.40;2.10;;;;;28.90;98008.40;;;;111473;1245;41946;-78
2022/07/20 07:41:45;;;;;;;3.50;1.70;;;;;28.88;98012.80;;;;111394;1247;41160;-77
2022/07/20 07:44:13;;;;;;;7.70;2.30;;;;;28.80;98010.20;;;;111008;1246;572416;-76
2022/07/20 07:46:42;;;;;;;5.70;2.30;;;;;28.86;98004.80;;;;111202;1247;41747;-78
2022/07/20 07:49:11;;;;;;;7.20;2.30;;;;;28.58;98010.20;;;;111233;1247;41906;-71
2022/07/20 07:51:41;;;;;;;7.30;2.40;;;;;28.62;98012.20;;;;111477;1246;41263;-79
2022/07/20 07:54:10;;;;;;;5.50;1.90;;;;;28.38;98011.60;;;;111512;1246;41793;-78
2022/07/20 07:56:41;;;;;;;6.10;2.20;;;;;28.50;98010.60;;;;111298;1247;42063;-72
2022/07/20 07:59:10;;;;;;;6.70;2.30;;;;;28.70;98002.20;;;;111346;1247;40886;-72
2022/07/20 08:01:59;;;;;;;5.90;2.30;;;;;28.60;98009.60;;;;111245;1247;41514;-75
2022/07/20 08:04:28;;;;;;;7.70;2.50;;;;;28.70;98005.40;;;;111499;1246;41939;-75
2022/07/20 08:06:57;;;;;;;7.00;2.10;;;;;28.60;98010.40;;;;111161;1248;41365;-71
2022/07/20 08:09:26;;;;;;;9.00;2.30;;;;;28.70;98001.00;;;;111497;1246;41125;-75
2022/07/20 08:11:55;;;;;;;5.90;2.10;;;;;28.68;98000.80;;;;111128;1248;41256;-75
2022/07/20 08:14:24;;;;;;;7.30;2.60;;;;;28.80;98003.20;;;;111198;1246;41406;-75
2022/07/20 08:16:53;;;;;;;7.20;2.20;;;;;29.00;98004.80;;;;111178;1247;41135;-75
2022/07/20 08:19:22;;;;;;;6.00;1.90;;;;;28.84;98004.80;;;;111383;1247;41160;-75
2022/07/20 08:21:51;;;;;;;6.10;2.20;;;;;29.04;98000.60;;;;111206;1247;42152;-75
2022/07/20 08:24:21;;;;;;;5.30;2.00;;;;;29.40;98000.00;;;;111529;1247;41377;-75
2022/07/20 08:26:51;;;;;;;7.70;2.20;;;;;29.64;97994.20;;;;111580;1246;41608;-75
2022/07/20 08:29:20;;;;;;;5.20;2.10;;;;;29.90;97992.80;;;;111242;1247;41345;-73
2022/07/20 08:31:49;;;;;;;3.90;1.70;;;;;30.20;97991.00;;;;111541;1244;41960;-73
2022/07/20 08:34:18;;;;;;;4.00;1.70;;;;;30.50;97990.00;;;;111526;1245;41234;-75
2022/07/20 08:36:50;;;;;;;6.20;1.70;;;;;30.70;97986.00;;;;111187;1247;42255;-76
2022/07/20 08:39:19;;;;;;;3.60;1.70;;;;;31.00;97987.20;;;;111547;1247;41155;-74
2022/07/20 08:41:48;;;;;;;7.60;2.00;;;;;31.00;97986.60;;;;111199;1247;41881;-75
2022/07/20 08:44:17;;;;;;;4.50;1.90;;;;;31.20;97983.20;;;;111373;1247;42183;-76
2022/07/20 08:46:46;;;;;;;7.10;1.90;;;;;31.16;97980.00;;;;111181;1247;41140;-76
2022/07/20 08:49:15;;;;;;;8.20;2.40;;;;;31.30;97980.80;;;;111352;1246;41136;-77
2022/07/20 08:51:44;;;;;;;5.30;1.70;;;;;31.60;97978.80;;;;111574;1246;41147;-78
2022/07/20 08:54:13;;;;;;;3.70;1.80;;;;;31.70;97976.80;;;;111566;1247;41144;-78
2022/07/20 08:56:42;;;;;;;6.90;2.20;;;;;31.94;97971.40;;;;111568;1246;41184;-77
2022/07/20 08:59:11;;;;;;;5.00;1.90;;;;;32.20;97969.20;;;;111558;1246;41135;-75
2022/07/20 09:02:04;;;;;;;9.30;2.10;;;;;32.38;97960.00;;;;111216;1247;41203;-78
2022/07/20 09:04:51;;;;;;;7.10;2.00;;;;;32.80;97959.00;;;;111555;1246;41603;-75
2022/07/20 09:07:46;;;;;;;4.80;1.80;;;;;32.72;97957.20;;;;111339;1247;41646;-75
2022/07/20 09:10:18;;;;;;;4.00;1.80;;;;;32.94;97957.60;;;;111548;1247;41261;-75
2022/07/20 09:13:01;;;;;;;5.60;1.80;;;;;33.20;97956.80;;;;111238;1246;42283;-76
2022/07/20 09:15:36;;;;;;;5.30;1.90;;;;;33.86;97947.20;;;;111544;1245;41136;-77
2022/07/20 09:18:06;;;;;;;4.20;1.70;;;;;34.24;97949.80;;;;111199;1248;41269;-77
2022/07/20 09:20:38;;;;;;;5.30;1.90;;;;;34.88;97944.40;;;;111445;1247;41545;-74
2022/07/20 09:23:33;;;;;;;3.20;1.70;;;;;35.18;97942.60;;;;111596;1245;42120;-76
2022/07/20 09:26:04;;;;;;;9.90;2.20;;;;;35.72;97935.60;;;;111544;1247;41390;-76
2022/07/20 09:28:48;;;;;;;5.90;1.80;;;;;36.18;97931.20;;;;111459;1247;41503;-73
2022/07/20 09:31:25;;;;;;;7.40;2.20;;;;;36.50;97931.20;;;;111309;1247;41154;-76
2022/07/20 09:34:15;;;;;;;5.70;2.10;;;;;36.92;97914.20;;;;111435;1247;41130;-75
2022/07/20 09:36:46;;;;;;;6.40;2.20;;;;;37.14;97912.40;;;;111189;1247;41296;-76
2022/07/20 09:39:19;;;;;;;5.30;2.10;;;;;37.24;97914.40;;;;111192;1247;41732;-76
2022/07/20 09:41:52;;;;;;;4.20;1.80;;;;;36.52;97911.20;;;;111573;1245;41120;-76
2022/07/20 09:44:25;;;;;;;5.90;1.90;;;;;36.06;97911.60;;;;111212;1247;40892;-76
2022/07/20 09:46:55;;;;;;;8.20;2.10;;;;;36.32;97909.20;;;;111205;1247;41627;-76
2022/07/20 09:49:33;;;;;;;5.10;1.80;;;;;36.82;97904.40;;;;111479;1246;41134;-75
2022/07/20 09:52:03;;;;;;;7.00;2.50;;;;;37.04;97903.40;;;;111276;1247;41612;-77
2022/07/20 09:54:52;;;;;;;7.10;1.80;;;;;37.34;97899.80;;;;111258;1247;41299;-78
2022/07/20 09:57:22;;;;;;;3.60;1.70;;;;;36.80;97902.00;;;;111311;1247;41764;-76
2022/07/20 09:59:51;;;;;;;5.80;2.10;;;;;37.12;97899.20;;;;111251;1247;41176;-76
2022/07/20 10:02:24;;;;;;;7.40;2.20;;;;;37.10;97897.80;;;;111204;1247;41134;-76
2022/07/20 10:04:53;;;;;;;4.30;1.60;;;;;37.24;97896.40;;;;111571;1247;41694;-71
2022/07/20 10:07:23;;;;;;;4.40;1.70;;;;;37.34;97892.60;;;;111258;1247;41238;-77
2022/07/20 10:09:52;;;;;;;3.90;1.70;;;;;37.56;97882.20;;;;111578;1246;41253;-75
2022/07/20 10:12:21;;;;;;;2.60;1.50;;;;;38.02;97886.20;;;;111542;1245;41881;-75
2022/07/20 10:14:51;;;;;;;5.30;2.00;;;;;38.46;97886.40;;;;111378;1245;41380;-69
2022/07/20 10:17:20;;;;;;;4.30;1.60;;;;;38.58;97885.20;;;;111175;1247;41133;-77
2022/07/20 10:19:49;;;;;;;4.00;1.70;;;;;38.20;97883.20;;;;111468;1246;41142;-71
2022/07/20 10:22:18;;;;;;;3.50;1.60;;;;;37.92;97877.80;;;;111264;1247;41940;-77
2022/07/20 10:25:14;;;;;;;2.40;1.30;;;;;37.64;97877.40;;;;111535;1246;41942;-75
2022/07/20 10:27:43;;;;;;;4.30;1.60;;;;;37.68;97876.60;;;;111248;1247;41504;-72
2022/07/20 10:30:17;;;;;;;5.40;1.30;;;;;37.74;97878.60;;;;111216;1247;41145;-71
2022/07/20 10:32:58;;;;;;;4.40;1.60;;;;;37.90;97873.80;;;;111586;1245;41246;-74
2022/07/20 10:35:31;;;;;;;2.80;1.50;;;;;37.90;97866.00;;;;111590;1247;40926;-75
2022/07/20 10:38:00;;;;;;;3.70;1.60;;;;;37.90;97863.60;;;;111471;1247;41154;-74
2022/07/20 10:40:29;;;;;;;5.00;1.80;;;;;37.80;97861.80;;;;111549;1246;41445;-72
2022/07/20 10:43:15;;;;;;;4.20;1.60;;;;;37.72;97859.20;;;;111231;1247;41178;-74
2022/07/20 10:45:46;;;;;;;4.80;1.50;;;;;37.70;97858.40;;;;111606;1246;41132;-74
2022/07/20 10:48:17;;;;;;;7.70;1.60;;;;;37.50;97854.40;;;;111486;1244;41154;-75
2022/07/20 10:50:54;;;;;;;4.10;1.70;;;;;37.42;97860.20;;;;111511;1244;41752;-74
2022/07/20 10:53:23;;;;;;;3.80;1.50;;;;;37.50;97858.00;;;;111365;1246;42408;-74
2022/07/20 10:55:55;;;;;;;5.20;1.70;;;;;37.50;97849.80;;;;111246;1247;41129;-73
2022/07/20 10:58:27;;;;;;;4.40;1.70;;;;;37.44;97854.60;;;;111222;1247;41128;-74
2022/07/20 11:01:13;;;;;;;5.00;1.70;;;;;37.50;97848.60;;;;110930;1247;41266;-73
2022/07/20 11:03:48;;;;;;;2.80;1.40;;;;;38.08;97841.20;;;;111149;1248;41390;-75
2022/07/20 11:06:23;;;;;;;4.30;1.60;;;;;38.48;97837.80;;;;111315;1247;41387;-74
2022/07/20 11:08:56;;;;;;;3.70;1.60;;;;;39.10;97833.40;;;;111231;1247;42132;-74
2022/07/20 11:11:31;;;;;;;5.70;1.60;;;;;39.98;97820.00;;;;111248;1246;41236;-75
2022/07/20 11:14:02;;;;;;;4.40;1.60;;;;;40.40;97815.80;;;;111169;1249;42077;-73
2022/07/20 11:16:33;;;;;;;5.30;1.60;;;;;40.60;97816.00;;;;111129;1247;41179;-74
2022/07/20 11:19:04;;;;;;;3.70;1.50;;;;;40.58;97817.00;;;;111187;1247;41152;-75
2022/07/20 11:21:40;;;;;;;4.50;1.40;;;;;40.62;97819.60;;;;111223;1247;41160;-74
2022/07/20 11:24:27;;;;;;;4.30;1.60;;;;;40.94;97813.40;;;;111385;1247;41609;-75
2022/07/20 11:26:56;;;;;;;3.30;1.60;;;;;41.70;97805.80;;;;111237;1247;41921;-74
2022/07/20 11:29:27;;;;;;;5.50;1.50;;;;;42.16;97807.20;;;;111417;1247;41259;-74
2022/07/20 11:32:07;;;;;;;3.00;1.50;;;;;42.90;97794.80;;;;111218;1247;41509;-76
2022/07/20 11:34:46;;;;;;;4.20;1.50;;;;;43.00;97793.40;;;;111288;1247;42164;-75
2022/07/20 11:37:17;;;;;;;4.20;1.40;;;;;42.98;97790.40;;;;111336;1247;41293;-74
2022/07/20 11:39:47;;;;;;;2.80;1.30;;;;;42.94;97789.80;;;;111397;1245;41155;-74
2022/07/20 11:42:17;;;;;;;4.80;1.70;;;;;43.06;97782.60;;;;111362;1247;41305;-76
2022/07/20 11:45:00;;;;;;;5.70;1.60;;;;;42.76;97787.00;;;;111113;1247;41145;-74
2022/07/20 11:47:29;;;;;;;3.40;1.50;;;;;42.90;97788.40;;;;111438;1247;41132;-73
2022/07/20 11:50:09;;;;;;;3.30;1.50;;;;;43.04;97779.20;;;;111094;1248;41122;-77
2022/07/20 11:52:44;;;;;;;3.80;1.10;;;;;42.40;97790.40;;;;111229;1246;41171;-74
2022/07/20 11:55:13;;;;;;;2.80;1.40;;;;;42.74;97783.60;;;;111156;1248;41367;-76
2022/07/20 11:57:42;;;;;;;2.20;1.30;;;;;42.86;97779.40;;;;111396;1247;41988;-78
2022/07/20 12:00:14;;;;;;;3.90;1.40;;;;;42.60;97782.80;;;;111213;1247;41270;-75
2022/07/20 12:02:43;;;;;;;3.00;1.10;;;;;42.84;97778.20;;;;111313;1247;41253;-71
2022/07/20 12:05:15;;;;;;;3.40;1.40;;;;;42.60;97781.20;;;;111311;1247;42193;-75
2022/07/20 12:10:37;;;;;;;3.50;1.50;;;;;42.76;97775.00;;;;111210;1247;40756;-75
2022/07/20 12:13:07;;;;;;;2.80;1.20;;;;;42.86;97777.40;;;;111422;1246;41172;-74
2022/07/20 12:15:36;;;;;;;2.80;1.40;;;;;42.92;97769.80;;;;111348;1246;41138;-70
2022/07/20 12:18:05;;;;;;;4.70;1.50;;;;;42.76;97772.40;;;;111434;1246;41236;-73
2022/07/20 12:20:34;;;;;;;3.00;1.40;;;;;42.90;97776.00;;;;111180;1247;41156;-73
2022/07/20 12:23:03;;;;;;;3.20;1.50;;;;;43.04;97773.60;;;;111153;1248;41147;-74
2022/07/20 12:25:40;;;;;;;3.40;1.40;;;;;41.80;97771.60;;;;111360;1246;41165;-76
2022/07/20 12:28:09;;;;;;;3.00;1.40;;;;;40.70;97782.60;;;;111185;1247;41250;-75
2022/07/20 12:31:14;;;;;;;2.20;1.20;;;;;39.76;97782.40;;;;111299;1247;41381;-75
2022/07/20 12:34:01;;;;;;;2.40;1.30;;;;;38.82;97778.80;;;;111288;1247;42139;-74